createdAt,value
2023-05-10T00:02:01.450Z,100.00
2023-05-10T00:05:12.291Z,100.00
2023-05-10T00:08:01.230Z,100.00
2023-05-10T00:10:44.201Z,100.00
2023-05-10T00:16:23.166Z,100.00
2023-05-10T00:19:23.001Z,100.00
2023-05-10T00:22:00.878Z,100.00
2023-05-10T00:25:12.553Z,100.00
2023-05-10T00:28:11.928Z,100.00
2023-05-10T00:31:05.966Z,100.00
2023-05-10T00:34:25.284Z,100.00
2023-05-10T00:36:53.676Z,100.00
2023-05-10T00:39:31.072Z,100.00
2023-05-10T00:42:05.519Z,100.00
2023-05-10T00:45:03.575Z,100.00
2023-05-10T00:48:04.299Z,100.00
2023-05-10T00:50:46.373Z,100.00
2023-05-10T00:54:33.723Z,100.00
2023-05-10T00:57:15.359Z,100.00
2023-05-10T01:00:19.691Z,100.00
2023-05-10T01:03:20.374Z,100.00
2023-05-10T01:06:02.201Z,100.00
2023-05-10T01:09:03.652Z,100.00
2023-05-10T01:12:03.754Z,100.00
2023-05-10T01:15:30.070Z,100.00
2023-05-10T01:18:18.467Z,100.00
2023-05-10T01:20:54.661Z,100.00
2023-05-10T01:24:16.664Z,100.00
2023-05-10T01:27:28.713Z,100.00
2023-05-10T01:30:38.065Z,100.00
2023-05-10T01:33:15.252Z,100.00
2023-05-10T01:36:02.588Z,100.00
2023-05-10T01:38:38.642Z,100.00
2023-05-10T01:41:30.203Z,100.00
2023-05-10T01:44:11.578Z,100.00
2023-05-10T01:46:59.634Z,100.00
2023-05-10T01:49:47.561Z,100.00
2023-05-10T01:52:20.405Z,100.00
2023-05-10T01:54:53.038Z,100.00
2023-05-10T01:57:22.427Z,100.00
2023-05-10T02:00:01.196Z,100.00
2023-05-10T02:02:34.658Z,100.00
2023-05-10T02:05:06.836Z,100.00
2023-05-10T02:07:36.194Z,100.00
2023-05-10T02:10:05.331Z,100.00
2023-05-10T02:12:47.829Z,100.00
2023-05-10T02:15:22.362Z,100.00
2023-05-10T02:17:52.252Z,100.00
2023-05-10T02:20:35.223Z,100.00
2023-05-10T02:23:08.952Z,100.00
2023-05-10T02:28:36.020Z,100.00
2023-05-10T02:31:11.765Z,100.00
2023-05-10T02:33:43.449Z,100.00
2023-05-10T02:36:18.171Z,100.00
2023-05-10T02:38:49.804Z,100.00
2023-05-10T02:41:27.132Z,100.00
2023-05-10T02:43:59.845Z,100.00
2023-05-10T02:46:30.044Z,100.00
2023-05-10T02:48:58.372Z,100.00
2023-05-10T02:51:34.733Z,100.00
2023-05-10T02:54:09.242Z,100.00
2023-05-10T02:56:43.230Z,100.00
2023-05-10T02:59:12.197Z,100.00
2023-05-10T03:01:40.826Z,100.00
2023-05-10T03:04:10.057Z,100.00
2023-05-10T03:06:40.204Z,100.00
2023-05-10T03:09:10.390Z,100.00
2023-05-10T03:11:48.621Z,100.00
2023-05-10T03:14:24.418Z,100.00
2023-05-10T03:16:58.993Z,100.00
2023-05-10T03:19:32.220Z,100.00
2023-05-10T03:22:07.440Z,100.00
2023-05-10T03:24:37.921Z,100.00
2023-05-10T03:27:08.478Z,100.00
2023-05-10T03:29:39.434Z,100.00
2023-05-10T03:32:07.801Z,100.00
2023-05-10T03:34:37.596Z,100.00
2023-05-10T03:37:07.942Z,100.00
2023-05-10T03:39:36.503Z,100.00
2023-05-10T03:42:07.368Z,100.00
2023-05-10T03:44:35.630Z,100.00
2023-05-10T03:47:04.247Z,100.00
2023-05-10T03:49:32.605Z,100.00
2023-05-10T03:52:04.679Z,100.00
2023-05-10T03:54:34.721Z,100.00
2023-05-10T03:57:03.968Z,100.00
2023-05-10T03:59:34.758Z,100.00
2023-05-10T04:02:04.670Z,100.00
2023-05-10T04:04:33.051Z,100.00
2023-05-10T04:07:01.319Z,100.00
2023-05-10T04:09:29.529Z,100.00
2023-05-10T04:12:00.925Z,100.00
2023-05-10T04:14:30.579Z,100.00
2023-05-10T04:16:59.312Z,100.00
2023-05-10T04:19:34.889Z,100.00
2023-05-10T04:22:05.839Z,100.00
2023-05-10T04:24:34.036Z,100.00
2023-05-10T04:27:03.680Z,100.00
2023-05-10T04:29:32.054Z,100.00
2023-05-10T04:32:00.486Z,100.00
2023-05-10T04:34:28.856Z,100.00
2023-05-10T04:36:57.088Z,100.00
2023-05-10T04:39:25.318Z,100.00
2023-05-10T04:41:54.289Z,100.00
2023-05-10T04:44:23.920Z,100.00
2023-05-10T04:46:53.915Z,100.00
2023-05-10T04:49:23.561Z,100.00
2023-05-10T04:52:02.848Z,100.00
2023-05-10T04:54:31.215Z,100.00
2023-05-10T04:57:04.654Z,100.00
2023-05-10T04:59:34.434Z,100.00
2023-05-10T05:02:09.447Z,100.00
2023-05-10T05:04:38.239Z,100.00
2023-05-10T05:07:09.034Z,100.00
2023-05-10T05:09:43.191Z,100.00
2023-05-10T05:12:15.096Z,100.00
2023-05-10T05:14:46.440Z,100.00
2023-05-10T05:17:22.637Z,100.00
2023-05-10T05:19:51.397Z,100.00
2023-05-10T05:22:20.515Z,100.00
2023-05-10T05:24:48.624Z,100.00
2023-05-10T05:27:16.963Z,100.00
2023-05-10T05:29:47.205Z,100.00
2023-05-10T05:32:15.470Z,100.00
2023-05-10T05:34:44.054Z,100.00
2023-05-10T05:37:15.222Z,100.00
2023-05-10T05:39:44.499Z,100.00
2023-05-10T05:42:13.481Z,100.00
2023-05-10T05:44:42.065Z,100.00
2023-05-10T05:47:16.414Z,100.00
2023-05-10T05:49:48.166Z,100.00
2023-05-10T05:52:18.742Z,100.00
2023-05-10T05:54:47.061Z,100.00
2023-05-10T05:57:17.748Z,100.00
2023-05-10T05:59:46.756Z,100.00
2023-05-10T06:02:16.929Z,100.00
2023-05-10T06:04:46.549Z,100.00
2023-05-10T06:07:14.985Z,100.00
2023-05-10T06:09:43.563Z,100.00
2023-05-10T06:12:14.233Z,100.00
2023-05-10T06:14:42.354Z,100.00
2023-05-10T06:17:10.516Z,100.00
2023-05-10T06:19:40.121Z,100.00
2023-05-10T06:22:08.556Z,100.00
2023-05-10T06:24:37.225Z,100.00
2023-05-10T06:27:05.480Z,100.00
2023-05-10T06:29:33.695Z,100.00
2023-05-10T06:32:02.275Z,100.00
2023-05-10T06:34:30.549Z,100.00
2023-05-10T06:37:00.123Z,100.00
2023-05-10T06:39:28.484Z,100.00
2023-05-10T06:41:56.688Z,100.00
2023-05-10T06:44:25.044Z,100.00
2023-05-10T06:46:54.542Z,100.00
2023-05-10T06:49:22.739Z,98.63
2023-05-10T06:51:50.919Z,93.78
2023-05-10T06:54:21.161Z,90.75
2023-05-10T06:56:49.411Z,90.59
2023-05-10T06:59:18.225Z,87.32
2023-05-10T07:01:46.601Z,87.08
2023-05-10T07:04:14.897Z,85.51
2023-05-10T07:06:43.190Z,82.50
2023-05-10T07:09:11.408Z,76.48
2023-05-10T07:11:41.039Z,74.54
2023-05-10T07:14:09.337Z,73.87
2023-05-10T07:16:37.609Z,75.13
2023-05-10T07:19:06.829Z,77.47
2023-05-10T07:21:36.181Z,78.51
2023-05-10T07:24:04.667Z,74.96
2023-05-10T07:26:32.943Z,72.78
2023-05-10T07:29:03.487Z,74.21
2023-05-10T07:31:31.709Z,73.90
2023-05-10T07:34:00.067Z,72.53
2023-05-10T07:36:28.862Z,71.84
2023-05-10T07:38:58.455Z,70.03
2023-05-10T07:41:27.030Z,70.47
2023-05-10T07:43:55.262Z,69.82
2023-05-10T07:46:24.922Z,67.79
2023-05-10T07:48:53.161Z,67.97
2023-05-10T07:51:21.285Z,68.01
2023-05-10T07:53:49.486Z,66.86
2023-05-10T07:56:26.213Z,65.08
2023-05-10T07:58:54.366Z,63.94
2023-05-10T08:01:24.254Z,65.05
2023-05-10T08:03:54.316Z,63.72
2023-05-10T08:06:23.233Z,62.71
2023-05-10T08:08:51.758Z,63.33
2023-05-10T08:11:21.527Z,60.39
2023-05-10T08:13:51.133Z,62.10
2023-05-10T08:16:19.477Z,61.48
2023-05-10T08:18:50.270Z,60.95
2023-05-10T08:21:18.486Z,58.03
2023-05-10T08:23:46.736Z,58.87
2023-05-10T08:26:14.956Z,57.27
2023-05-10T08:28:43.215Z,58.40
2023-05-10T08:31:13.668Z,55.63
2023-05-10T08:33:43.768Z,53.56
2023-05-10T08:36:15.249Z,51.93
2023-05-10T08:38:43.930Z,52.73
2023-05-10T08:41:12.491Z,53.44
2023-05-10T08:43:42.573Z,54.06
2023-05-10T08:46:12.350Z,53.09
2023-05-10T08:48:41.266Z,52.93
2023-05-10T08:51:10.621Z,52.17
2023-05-10T08:53:40.286Z,51.41
2023-05-10T08:56:09.211Z,50.35
2023-05-10T08:58:37.794Z,50.28
2023-05-10T09:01:06.662Z,49.55
2023-05-10T09:03:34.846Z,48.94
2023-05-10T09:06:03.681Z,48.79
2023-05-10T09:08:32.231Z,48.52
2023-05-10T09:11:04.072Z,47.91
2023-05-10T09:13:32.607Z,46.91
2023-05-10T09:16:09.877Z,45.38
2023-05-10T09:18:42.151Z,46.91
2023-05-10T09:21:11.054Z,47.11
2023-05-10T09:23:39.224Z,46.57
2023-05-10T09:26:09.878Z,47.52
2023-05-10T09:28:53.694Z,47.89
2023-05-10T09:31:22.001Z,46.42
2023-05-10T09:33:51.517Z,46.93
2023-05-10T09:36:19.798Z,43.88
2023-05-10T09:38:49.124Z,44.32
2023-05-10T09:41:26.120Z,45.28
2023-05-10T09:43:58.266Z,44.74
2023-05-10T09:46:27.073Z,44.69
2023-05-10T09:48:55.796Z,45.14
2023-05-10T09:51:27.897Z,43.86
2023-05-10T09:54:11.797Z,43.45
2023-05-10T09:56:41.927Z,44.06
2023-05-10T09:59:11.652Z,43.28
2023-05-10T10:01:40.380Z,44.02
2023-05-10T10:04:11.075Z,45.86
2023-05-10T10:06:39.804Z,46.47
2023-05-10T10:09:08.805Z,44.93
2023-05-10T10:11:40.048Z,42.93
2023-05-10T10:14:10.010Z,44.33
2023-05-10T10:16:45.831Z,41.94
2023-05-10T10:19:20.754Z,40.39
2023-05-10T10:21:48.945Z,40.54
2023-05-10T10:24:17.235Z,40.84
2023-05-10T10:26:45.843Z,41.37
2023-05-10T10:29:23.350Z,40.67
2023-05-10T10:31:59.695Z,40.15
2023-05-10T10:34:30.022Z,39.53
2023-05-10T10:36:59.401Z,38.93
2023-05-10T10:39:27.731Z,38.93
2023-05-10T10:41:57.496Z,40.40
2023-05-10T10:44:35.994Z,41.87
2023-05-10T10:47:09.467Z,39.59
2023-05-10T10:50:08.548Z,40.04
2023-05-10T10:52:38.467Z,40.09
2023-05-10T10:55:09.495Z,40.42
2023-05-10T10:57:46.897Z,40.27
2023-05-10T11:00:28.937Z,40.73
2023-05-10T11:03:03.038Z,40.10
2023-05-10T11:05:42.573Z,40.28
2023-05-10T11:08:19.190Z,40.10
2023-05-10T11:11:10.994Z,40.59
2023-05-10T11:13:47.249Z,41.56
2023-05-10T11:16:21.350Z,41.30
2023-05-10T11:19:04.036Z,41.26
2023-05-10T11:21:33.654Z,41.40
2023-05-10T11:24:07.019Z,41.42
2023-05-10T11:26:37.702Z,41.47
2023-05-10T11:29:07.418Z,42.59
2023-05-10T11:31:37.557Z,44.05
2023-05-10T11:34:06.729Z,43.66
2023-05-10T11:36:36.819Z,45.08
2023-05-10T11:39:05.741Z,46.36
2023-05-10T11:41:34.327Z,46.60
2023-05-10T11:44:02.650Z,45.99
2023-05-10T11:46:31.269Z,45.68
2023-05-10T11:49:05.316Z,45.48
2023-05-10T11:51:36.796Z,45.72
2023-05-10T11:54:09.692Z,45.02
2023-05-10T11:56:46.146Z,45.59
2023-05-10T11:59:16.923Z,44.64
2023-05-10T12:01:45.943Z,44.90
2023-05-10T12:04:16.020Z,45.61
2023-05-10T12:06:47.625Z,45.03
2023-05-10T12:09:19.214Z,45.69
2023-05-10T12:11:51.556Z,45.80
2023-05-10T12:14:20.971Z,45.41
2023-05-10T12:16:49.929Z,45.75
2023-05-10T12:19:22.173Z,45.75
2023-05-10T12:21:50.610Z,44.93
2023-05-10T12:24:20.597Z,44.53
2023-05-10T12:26:49.443Z,44.47
2023-05-10T12:29:19.070Z,45.47
2023-05-10T12:31:54.931Z,46.25
2023-05-10T12:34:36.520Z,46.86
2023-05-10T12:37:05.647Z,46.65
2023-05-10T12:39:41.806Z,47.76
2023-05-10T12:42:11.013Z,47.99
2023-05-10T12:44:39.665Z,48.69
2023-05-10T12:47:07.988Z,47.76
2023-05-10T12:49:37.603Z,47.33
2023-05-10T12:52:06.125Z,47.81
2023-05-10T12:54:34.349Z,48.23
2023-05-10T12:57:03.288Z,47.46
2023-05-10T12:59:32.692Z,47.48
2023-05-10T13:02:01.854Z,47.25
2023-05-10T13:04:30.151Z,46.35
2023-05-10T13:07:00.538Z,46.78
2023-05-10T13:09:30.411Z,47.54
2023-05-10T13:11:58.900Z,46.52
2023-05-10T13:14:27.434Z,45.17
2023-05-10T13:16:58.914Z,45.47
2023-05-10T13:19:30.716Z,45.69
2023-05-10T13:22:00.522Z,46.38
2023-05-10T13:24:28.913Z,46.04
2023-05-10T13:26:57.291Z,46.76
2023-05-10T13:29:25.679Z,48.11
2023-05-10T13:31:54.455Z,49.09
2023-05-10T13:34:23.900Z,49.48
2023-05-10T13:36:53.971Z,49.50
2023-05-10T13:39:23.912Z,49.55
2023-05-10T13:41:53.283Z,49.56
2023-05-10T13:44:22.767Z,49.56
2023-05-10T13:46:51.129Z,49.14
2023-05-10T13:49:20.092Z,49.17
2023-05-10T13:51:48.485Z,49.33
2023-05-10T13:54:18.505Z,48.12
2023-05-10T13:56:49.617Z,47.73
2023-05-10T13:59:18.327Z,47.15
2023-05-10T14:01:47.900Z,46.82
2023-05-10T14:04:16.932Z,45.99
2023-05-10T14:06:45.928Z,46.39
2023-05-10T14:09:15.170Z,45.63
2023-05-10T14:11:44.362Z,44.91
2023-05-10T14:14:17.309Z,44.95
2023-05-10T14:16:48.755Z,45.32
2023-05-10T14:19:18.916Z,44.24
2023-05-10T14:21:52.283Z,43.63
2023-05-10T14:24:20.748Z,43.90
2023-05-10T14:26:48.989Z,44.72
2023-05-10T14:29:20.525Z,45.80
2023-05-10T14:31:49.282Z,46.37
2023-05-10T14:34:18.146Z,46.50
2023-05-10T14:36:49.902Z,46.72
2023-05-10T14:39:18.404Z,47.05
2023-05-10T14:41:48.215Z,46.40
2023-05-10T14:44:19.081Z,45.88
2023-05-10T14:46:49.417Z,45.16
2023-05-10T14:49:17.797Z,45.50
2023-05-10T14:51:47.086Z,44.74
2023-05-10T14:54:16.279Z,44.38
2023-05-10T14:56:46.524Z,46.21
2023-05-10T14:59:15.574Z,44.90
2023-05-10T15:01:45.903Z,43.79
2023-05-10T15:04:17.733Z,42.94
2023-05-10T15:06:47.224Z,42.64
2023-05-10T15:09:17.097Z,41.85
2023-05-10T15:11:47.465Z,41.35
2023-05-10T15:14:15.995Z,42.21
2023-05-10T15:16:45.987Z,41.49
2023-05-10T15:19:14.795Z,42.04
2023-05-10T15:21:45.602Z,42.42
2023-05-10T15:24:15.649Z,42.65
2023-05-10T15:26:48.424Z,44.32
2023-05-10T15:29:23.165Z,43.73
2023-05-10T15:31:53.307Z,44.42
2023-05-10T15:37:38.595Z,43.65
2023-05-10T15:40:12.143Z,44.61
2023-05-10T15:52:47.712Z,41.53
2023-05-10T15:55:19.104Z,40.71
2023-05-10T15:57:50.476Z,40.37
2023-05-10T16:00:21.678Z,41.62
2023-05-10T16:02:49.996Z,41.77
2023-05-10T16:05:20.009Z,41.71
2023-05-10T16:07:49.236Z,41.81
2023-05-10T16:10:17.511Z,43.13
2023-05-10T16:12:47.675Z,42.83
2023-05-10T16:15:16.552Z,43.41
2023-05-10T16:17:45.500Z,44.11
2023-05-10T16:20:14.118Z,44.20
2023-05-10T16:22:44.850Z,44.96
2023-05-10T16:25:19.019Z,44.94
2023-05-10T16:27:48.560Z,46.07
2023-05-10T16:30:17.642Z,46.15
2023-05-10T16:32:47.642Z,46.73
2023-05-10T16:35:16.897Z,46.09
2023-05-10T16:37:47.327Z,46.65
2023-05-10T16:40:18.006Z,47.68
2023-05-10T16:42:47.297Z,47.94
2023-05-10T16:45:17.682Z,48.22
2023-05-10T16:47:47.065Z,48.40
2023-05-10T16:50:17.547Z,48.01
2023-05-10T16:52:49.497Z,48.74
2023-05-10T16:55:19.886Z,49.24
2023-05-10T16:57:48.954Z,49.05
2023-05-10T17:00:21.189Z,49.91
2023-05-10T17:02:50.408Z,49.37
2023-05-10T17:05:19.950Z,49.41
2023-05-10T17:07:51.078Z,50.62
2023-05-10T17:10:20.514Z,49.99
2023-05-10T17:12:49.837Z,50.60
2023-05-10T17:15:19.944Z,50.58
2023-05-10T17:17:49.423Z,50.59
2023-05-10T17:20:18.700Z,50.73
2023-05-10T17:22:47.828Z,51.26
2023-05-10T17:25:18.746Z,51.13
2023-05-10T17:27:48.330Z,50.10
2023-05-10T17:30:17.588Z,49.99
2023-05-10T17:32:46.872Z,50.88
2023-05-10T17:35:16.355Z,51.39
2023-05-10T17:37:45.828Z,51.57
2023-05-10T17:40:15.068Z,51.91
2023-05-10T17:42:47.966Z,52.29
2023-05-10T17:45:17.655Z,52.80
2023-05-10T17:47:47.058Z,54.35
2023-05-10T17:50:16.431Z,54.03
2023-05-10T17:52:45.610Z,54.05
2023-05-10T17:55:15.384Z,54.05
2023-05-10T17:57:46.687Z,53.60
2023-05-10T18:00:17.477Z,53.86
2023-05-10T18:02:46.932Z,53.46
2023-05-10T18:05:16.482Z,53.20
2023-05-10T18:07:47.883Z,54.01
2023-05-10T18:10:17.178Z,54.56
2023-05-10T18:12:47.893Z,55.54
2023-05-10T18:15:17.576Z,56.14
2023-05-10T18:17:46.883Z,56.69
2023-05-10T18:20:16.156Z,57.17
2023-05-10T18:22:45.387Z,58.37
2023-05-10T18:25:14.860Z,59.85
2023-05-10T18:27:52.748Z,60.88
2023-05-10T18:30:33.285Z,61.78
2023-05-10T18:33:32.168Z,63.52
2023-05-10T18:36:09.896Z,64.74
2023-05-10T18:38:43.623Z,66.17
2023-05-10T18:41:17.016Z,66.60
2023-05-10T18:43:47.044Z,67.12
2023-05-10T18:46:25.423Z,67.58
2023-05-10T18:48:56.421Z,68.17
2023-05-10T18:51:31.551Z,71.85
2023-05-10T18:54:05.787Z,72.98
2023-05-10T18:57:07.981Z,73.62
2023-05-10T18:59:42.305Z,75.19
2023-05-10T19:02:19.288Z,74.62
2023-05-10T19:05:17.273Z,75.22
2023-05-10T19:07:55.287Z,75.85
2023-05-10T19:10:24.911Z,76.08
2023-05-10T19:12:54.230Z,78.54
2023-05-10T19:15:24.053Z,79.73
2023-05-10T19:17:58.405Z,81.57
2023-05-10T19:20:27.672Z,81.68
2023-05-10T19:23:09.067Z,84.06
2023-05-10T19:25:41.015Z,85.10
2023-05-10T19:28:11.889Z,85.33
2023-05-10T19:30:43.481Z,86.31
2023-05-10T19:33:14.449Z,86.28
2023-05-10T19:35:43.782Z,86.40
2023-05-10T19:38:12.990Z,87.88
2023-05-10T19:40:42.218Z,85.58
2023-05-10T19:43:11.554Z,83.81
2023-05-10T19:45:41.052Z,82.51
2023-05-10T19:48:15.002Z,81.85
2023-05-10T19:50:47.912Z,85.74
2023-05-10T19:53:17.203Z,86.44
2023-05-10T19:55:46.651Z,86.56
2023-05-10T19:58:15.850Z,87.13
2023-05-10T20:00:45.379Z,87.00
2023-05-10T20:03:14.754Z,87.20
2023-05-10T20:05:45.635Z,89.42
2023-05-10T20:08:15.744Z,88.02
2023-05-10T20:10:46.815Z,87.52
2023-05-10T20:13:16.393Z,89.13
2023-05-10T20:15:45.730Z,86.94
2023-05-10T20:18:15.091Z,86.20
2023-05-10T20:20:46.963Z,86.42
2023-05-10T20:23:16.836Z,85.55
2023-05-10T20:25:46.433Z,83.43
2023-05-10T20:28:16.641Z,84.77
2023-05-10T20:30:45.949Z,87.55
2023-05-10T20:33:18.207Z,86.27
2023-05-10T20:35:50.495Z,87.31
2023-05-10T20:38:20.253Z,87.16
2023-05-10T20:40:49.792Z,87.08
2023-05-10T20:43:19.555Z,87.20
2023-05-10T20:45:49.205Z,88.06
2023-05-10T20:48:20.260Z,87.62
2023-05-10T20:50:52.739Z,88.55
2023-05-10T20:53:22.324Z,91.10
2023-05-10T20:55:52.991Z,90.68
2023-05-10T20:58:23.041Z,89.55
2023-05-10T21:00:53.149Z,90.81
2023-05-10T21:03:21.455Z,90.12
2023-05-10T21:05:51.418Z,89.30
2023-05-10T21:08:19.690Z,89.75
2023-05-10T21:10:48.086Z,89.00
2023-05-10T21:13:19.672Z,88.84
2023-05-10T21:15:48.446Z,88.66
2023-05-10T21:18:16.971Z,91.58
2023-05-10T21:20:45.320Z,93.03
2023-05-10T21:23:15.109Z,96.82
2023-05-10T21:25:44.407Z,93.93
2023-05-10T21:28:15.241Z,93.54
2023-05-10T21:30:55.625Z,96.04
2023-05-10T21:33:27.653Z,93.74
2023-05-10T21:35:55.927Z,95.18
2023-05-10T21:38:25.821Z,98.13
2023-05-10T21:40:54.095Z,99.10
2023-05-10T21:43:22.346Z,99.47
2023-05-10T21:45:50.863Z,97.51
2023-05-10T21:48:19.092Z,95.07
2023-05-10T21:50:48.194Z,96.20
2023-05-10T21:53:16.450Z,90.28
2023-05-10T21:55:47.175Z,87.80
2023-05-10T21:58:15.644Z,93.08
2023-05-10T22:00:44.429Z,91.09
2023-05-10T22:03:13.514Z,87.11
2023-05-10T22:05:41.839Z,87.81
2023-05-10T22:08:09.978Z,88.29
2023-05-10T22:10:38.236Z,90.93
2023-05-10T22:13:07.997Z,92.86
2023-05-10T22:15:36.979Z,86.40
2023-05-10T22:18:06.084Z,89.61
2023-05-10T22:20:36.254Z,86.16
2023-05-10T22:23:04.577Z,87.50
2023-05-10T22:25:32.892Z,87.25
2023-05-10T22:28:01.887Z,84.69
2023-05-10T22:30:33.048Z,90.32
2023-05-10T22:33:01.751Z,95.14
2023-05-10T22:35:30.696Z,100.00
2023-05-10T22:37:59.226Z,100.00
2023-05-10T22:40:27.949Z,100.00
2023-05-10T22:42:56.552Z,100.00
2023-05-10T22:45:25.131Z,100.00
2023-05-10T22:47:54.744Z,100.00
2023-05-10T22:50:25.683Z,100.00
2023-05-10T22:52:54.986Z,100.00
2023-05-10T22:55:23.757Z,100.00
2023-05-10T22:57:55.948Z,100.00
2023-05-10T23:00:26.504Z,100.00
2023-05-10T23:02:57.809Z,100.00
2023-05-10T23:05:26.850Z,100.00
2023-05-10T23:07:55.619Z,100.00
2023-05-10T23:10:24.375Z,100.00
2023-05-10T23:12:52.747Z,100.00
2023-05-10T23:15:20.926Z,100.00
2023-05-10T23:17:49.230Z,100.00
2023-05-10T23:20:19.389Z,100.00
2023-05-10T23:22:48.114Z,100.00
2023-05-10T23:25:17.040Z,100.00
2023-05-10T23:27:45.340Z,100.00
2023-05-10T23:30:14.045Z,100.00
2023-05-10T23:32:42.310Z,100.00
2023-05-10T23:35:10.987Z,100.00
2023-05-10T23:37:42.073Z,100.00
2023-05-10T23:40:11.203Z,100.00
2023-05-10T23:42:39.500Z,100.00
2023-05-10T23:45:08.333Z,100.00
2023-05-10T23:47:36.528Z,100.00
2023-05-10T23:50:05.354Z,100.00
2023-05-10T23:52:33.658Z,100.00
2023-05-10T23:55:03.300Z,100.00
2023-05-10T23:57:31.529Z,100.00
2023-05-10T23:59:59.771Z,100.00
